sensor_id;sensor_type;location;lat;lon;timestamp;P1;durP1;ratioP1;P2;durP2;ratioP2
48199;SDS011;33990;44.602;10.976;2023-03-08T00:00:05;5.38;;;3.53;;
48199;SDS011;33990;44.602;10.976;2023-03-08T00:02:39;7.30;;;4.18;;
48199;SDS011;33990;44.602;10.976;2023-03-08T00:05:06;5.18;;;3.53;;
48199;SDS011;33990;44.602;10.976;2023-03-08T00:07:34;5.10;;;3.65;;
48199;SDS011;33990;44.602;10.976;2023-03-08T00:10:02;6.72;;;4.18;;
48199;SDS011;33990;44.602;10.976;2023-03-08T00:12:30;5.57;;;3.72;;
48199;SDS011;33990;44.602;10.976;2023-03-08T00:14:57;7.22;;;3.92;;
48199;SDS011;33990;44.602;10.976;2023-03-08T00:17:25;5.53;;;3.83;;
48199;SDS011;33990;44.602;10.976;2023-03-08T00:19:52;6.72;;;3.53;;
48199;SDS011;33990;44.602;10.976;2023-03-08T00:22:19;6.72;;;4.03;;
48199;SDS011;33990;44.602;10.976;2023-03-08T00:24:46;5.60;;;3.95;;
48199;SDS011;33990;44.602;10.976;2023-03-08T00:27:14;5.70;;;4.03;;
48199;SDS011;33990;44.602;10.976;2023-03-08T00:29:41;5.75;;;3.83;;
48199;SDS011;33990;44.602;10.976;2023-03-08T00:32:08;7.82;;;3.90;;
48199;SDS011;33990;44.602;10.976;2023-03-08T00:34:36;8.63;;;4.72;;
48199;SDS011;33990;44.602;10.976;2023-03-08T00:37:03;8.23;;;4.10;;
48199;SDS011;33990;44.602;10.976;2023-03-08T00:39:30;6.32;;;3.97;;
48199;SDS011;33990;44.602;10.976;2023-03-08T00:41:58;5.68;;;3.83;;
48199;SDS011;33990;44.602;10.976;2023-03-08T00:44:26;6.03;;;3.75;;
48199;SDS011;33990;44.602;10.976;2023-03-08T00:46:53;7.50;;;3.70;;
48199;SDS011;33990;44.602;10.976;2023-03-08T00:49:21;7.45;;;4.60;;
48199;SDS011;33990;44.602;10.976;2023-03-08T00:51:48;6.88;;;3.95;;
48199;SDS011;33990;44.602;10.976;2023-03-08T00:54:16;9.27;;;4.95;;
48199;SDS011;33990;44.602;10.976;2023-03-08T00:56:43;5.38;;;4.43;;
48199;SDS011;33990;44.602;10.976;2023-03-08T00:59:10;7.15;;;4.40;;
48199;SDS011;33990;44.602;10.976;2023-03-08T01:01:38;5.30;;;4.28;;
48199;SDS011;33990;44.602;10.976;2023-03-08T01:04:06;5.55;;;3.72;;
48199;SDS011;33990;44.602;10.976;2023-03-08T01:06:34;5.05;;;4.00;;
48199;SDS011;33990;44.602;10.976;2023-03-08T01:09:01;5.50;;;3.30;;
48199;SDS011;33990;44.602;10.976;2023-03-08T01:11:29;6.50;;;4.20;;
48199;SDS011;33990;44.602;10.976;2023-03-08T01:13:56;6.85;;;4.60;;
48199;SDS011;33990;44.602;10.976;2023-03-08T01:16:25;5.65;;;4.15;;
48199;SDS011;33990;44.602;10.976;2023-03-08T01:18:55;5.03;;;3.70;;
48199;SDS011;33990;44.602;10.976;2023-03-08T01:21:23;6.65;;;4.13;;
48199;SDS011;33990;44.602;10.976;2023-03-08T01:23:54;12.52;;;4.45;;
48199;SDS011;33990;44.602;10.976;2023-03-08T01:26:23;6.60;;;4.28;;
48199;SDS011;33990;44.602;10.976;2023-03-08T01:28:55;6.82;;;4.10;;
48199;SDS011;33990;44.602;10.976;2023-03-08T01:31:24;7.32;;;4.35;;
48199;SDS011;33990;44.602;10.976;2023-03-08T01:33:54;6.82;;;4.15;;
48199;SDS011;33990;44.602;10.976;2023-03-08T01:36:24;8.88;;;4.32;;
48199;SDS011;33990;44.602;10.976;2023-03-08T01:38:52;6.22;;;3.53;;
48199;SDS011;33990;44.602;10.976;2023-03-08T01:43:52;5.07;;;2.97;;
48199;SDS011;33990;44.602;10.976;2023-03-08T01:54:09;7.13;;;4.68;;
48199;SDS011;33990;44.602;10.976;2023-03-08T01:57:01;5.68;;;3.33;;
48199;SDS011;33990;44.602;10.976;2023-03-08T01:59:32;6.88;;;4.00;;
48199;SDS011;33990;44.602;10.976;2023-03-08T02:02:00;5.00;;;3.90;;
48199;SDS011;33990;44.602;10.976;2023-03-08T02:04:30;6.40;;;3.72;;
48199;SDS011;33990;44.602;10.976;2023-03-08T02:06:57;5.35;;;3.67;;
48199;SDS011;33990;44.602;10.976;2023-03-08T02:09:26;5.63;;;3.88;;
48199;SDS011;33990;44.602;10.976;2023-03-08T02:11:54;5.68;;;3.90;;
48199;SDS011;33990;44.602;10.976;2023-03-08T02:14:27;4.90;;;3.58;;
48199;SDS011;33990;44.602;10.976;2023-03-08T02:16:55;8.60;;;4.18;;
48199;SDS011;33990;44.602;10.976;2023-03-08T02:19:25;5.20;;;3.88;;
48199;SDS011;33990;44.602;10.976;2023-03-08T02:22:06;4.95;;;4.18;;
48199;SDS011;33990;44.602;10.976;2023-03-08T02:24:35;5.50;;;3.25;;
48199;SDS011;33990;44.602;10.976;2023-03-08T02:27:05;5.57;;;3.80;;
48199;SDS011;33990;44.602;10.976;2023-03-08T02:29:35;5.20;;;3.60;;
48199;SDS011;33990;44.602;10.976;2023-03-08T02:32:02;5.57;;;3.50;;
48199;SDS011;33990;44.602;10.976;2023-03-08T02:34:30;4.45;;;3.30;;
48199;SDS011;33990;44.602;10.976;2023-03-08T02:36:57;5.57;;;3.50;;
48199;SDS011;33990;44.602;10.976;2023-03-08T02:39:25;8.18;;;3.85;;
48199;SDS011;33990;44.602;10.976;2023-03-08T02:41:54;4.93;;;3.20;;
48199;SDS011;33990;44.602;10.976;2023-03-08T02:44:21;6.38;;;3.40;;
48199;SDS011;33990;44.602;10.976;2023-03-08T02:46:51;5.45;;;3.05;;
48199;SDS011;33990;44.602;10.976;2023-03-08T02:49:18;7.13;;;3.03;;
48199;SDS011;33990;44.602;10.976;2023-03-08T02:51:47;6.07;;;3.40;;
48199;SDS011;33990;44.602;10.976;2023-03-08T02:54:14;7.13;;;3.50;;
48199;SDS011;33990;44.602;10.976;2023-03-08T02:56:43;7.10;;;3.17;;
48199;SDS011;33990;44.602;10.976;2023-03-08T02:59:12;4.70;;;3.40;;
48199;SDS011;33990;44.602;10.976;2023-03-08T03:01:42;6.72;;;3.20;;
48199;SDS011;33990;44.602;10.976;2023-03-08T03:04:09;4.40;;;2.90;;
48199;SDS011;33990;44.602;10.976;2023-03-08T03:06:36;4.10;;;2.42;;
48199;SDS011;33990;44.602;10.976;2023-03-08T03:09:05;6.03;;;3.15;;
48199;SDS011;33990;44.602;10.976;2023-03-08T03:11:33;5.13;;;2.95;;
48199;SDS011;33990;44.602;10.976;2023-03-08T03:14:01;3.42;;;2.40;;
48199;SDS011;33990;44.602;10.976;2023-03-08T03:16:33;5.25;;;3.35;;
48199;SDS011;33990;44.602;10.976;2023-03-08T03:19:02;6.28;;;3.03;;
48199;SDS011;33990;44.602;10.976;2023-03-08T03:21:30;3.50;;;2.60;;
48199;SDS011;33990;44.602;10.976;2023-03-08T03:23:57;4.82;;;3.00;;
48199;SDS011;33990;44.602;10.976;2023-03-08T03:26:32;4.40;;;2.80;;
48199;SDS011;33990;44.602;10.976;2023-03-08T03:29:01;4.93;;;3.13;;
48199;SDS011;33990;44.602;10.976;2023-03-08T03:31:32;5.75;;;3.13;;
48199;SDS011;33990;44.602;10.976;2023-03-08T03:34:00;8.00;;;3.40;;
48199;SDS011;33990;44.602;10.976;2023-03-08T03:36:28;3.75;;;3.00;;
48199;SDS011;33990;44.602;10.976;2023-03-08T03:38:57;5.57;;;3.03;;
48199;SDS011;33990;44.602;10.976;2023-03-08T03:41:24;4.95;;;2.90;;
48199;SDS011;33990;44.602;10.976;2023-03-08T03:44:06;3.67;;;2.80;;
48199;SDS011;33990;44.602;10.976;2023-03-08T03:46:34;5.18;;;2.50;;
48199;SDS011;33990;44.602;10.976;2023-03-08T03:49:04;3.47;;;2.53;;
48199;SDS011;33990;44.602;10.976;2023-03-08T03:51:36;4.60;;;2.55;;
48199;SDS011;33990;44.602;10.976;2023-03-08T03:54:13;7.68;;;2.95;;
48199;SDS011;33990;44.602;10.976;2023-03-08T03:56:43;4.95;;;2.85;;
48199;SDS011;33990;44.602;10.976;2023-03-08T03:59:11;4.38;;;2.78;;
48199;SDS011;33990;44.602;10.976;2023-03-08T04:01:39;3.97;;;2.45;;
48199;SDS011;33990;44.602;10.976;2023-03-08T04:04:23;3.80;;;2.35;;
48199;SDS011;33990;44.602;10.976;2023-03-08T04:06:52;4.63;;;2.83;;
48199;SDS011;33990;44.602;10.976;2023-03-08T04:09:24;4.38;;;2.85;;
48199;SDS011;33990;44.602;10.976;2023-03-08T04:12:13;4.15;;;2.50;;
48199;SDS011;33990;44.602;10.976;2023-03-08T04:14:41;3.22;;;2.25;;
48199;SDS011;33990;44.602;10.976;2023-03-08T04:17:11;3.72;;;2.67;;
48199;SDS011;33990;44.602;10.976;2023-03-08T04:19:51;4.60;;;2.25;;
48199;SDS011;33990;44.602;10.976;2023-03-08T04:22:20;4.53;;;2.47;;
48199;SDS011;33990;44.602;10.976;2023-03-08T04:27:27;3.70;;;2.38;;
48199;SDS011;33990;44.602;10.976;2023-03-08T04:29:55;4.95;;;2.55;;
48199;SDS011;33990;44.602;10.976;2023-03-08T04:32:22;4.03;;;2.45;;
48199;SDS011;33990;44.602;10.976;2023-03-08T04:34:55;4.40;;;2.83;;
48199;SDS011;33990;44.602;10.976;2023-03-08T04:37:25;3.42;;;2.20;;
48199;SDS011;33990;44.602;10.976;2023-03-08T04:40:00;3.47;;;1.67;;
48199;SDS011;33990;44.602;10.976;2023-03-08T04:42:29;3.30;;;2.15;;
48199;SDS011;33990;44.602;10.976;2023-03-08T04:44:56;3.88;;;2.38;;
48199;SDS011;33990;44.602;10.976;2023-03-08T04:47:25;5.32;;;2.60;;
48199;SDS011;33990;44.602;10.976;2023-03-08T04:49:52;3.80;;;2.35;;
48199;SDS011;33990;44.602;10.976;2023-03-08T04:52:20;4.20;;;2.40;;
48199;SDS011;33990;44.602;10.976;2023-03-08T04:54:47;4.03;;;2.28;;
48199;SDS011;33990;44.602;10.976;2023-03-08T04:57:20;3.27;;;2.13;;
48199;SDS011;33990;44.602;10.976;2023-03-08T04:59:49;4.55;;;2.58;;
48199;SDS011;33990;44.602;10.976;2023-03-08T05:02:17;4.32;;;2.60;;
48199;SDS011;33990;44.602;10.976;2023-03-08T05:04:46;5.05;;;2.67;;
48199;SDS011;33990;44.602;10.976;2023-03-08T05:07:13;4.25;;;2.25;;
48199;SDS011;33990;44.602;10.976;2023-03-08T05:09:41;3.90;;;2.38;;
48199;SDS011;33990;44.602;10.976;2023-03-08T05:12:09;5.45;;;2.00;;
48199;SDS011;33990;44.602;10.976;2023-03-08T05:14:48;5.35;;;2.13;;
48199;SDS011;33990;44.602;10.976;2023-03-08T05:17:15;3.35;;;2.03;;
48199;SDS011;33990;44.602;10.976;2023-03-08T05:19:43;3.58;;;1.83;;
48199;SDS011;33990;44.602;10.976;2023-03-08T05:22:14;3.75;;;2.13;;
48199;SDS011;33990;44.602;10.976;2023-03-08T05:24:47;3.25;;;2.22;;
48199;SDS011;33990;44.602;10.976;2023-03-08T05:27:16;3.25;;;1.90;;
48199;SDS011;33990;44.602;10.976;2023-03-08T05:29:44;4.03;;;2.40;;
48199;SDS011;33990;44.602;10.976;2023-03-08T05:32:12;3.45;;;1.70;;
48199;SDS011;33990;44.602;10.976;2023-03-08T05:34:40;4.03;;;1.83;;
48199;SDS011;33990;44.602;10.976;2023-03-08T05:37:11;3.72;;;2.17;;
48199;SDS011;33990;44.602;10.976;2023-03-08T05:39:41;3.15;;;1.77;;
48199;SDS011;33990;44.602;10.976;2023-03-08T05:42:16;4.05;;;2.03;;
48199;SDS011;33990;44.602;10.976;2023-03-08T05:44:46;3.10;;;2.10;;
48199;SDS011;33990;44.602;10.976;2023-03-08T05:47:18;4.32;;;2.15;;
48199;SDS011;33990;44.602;10.976;2023-03-08T05:49:46;4.82;;;2.17;;
48199;SDS011;33990;44.602;10.976;2023-03-08T05:52:15;3.60;;;2.00;;
48199;SDS011;33990;44.602;10.976;2023-03-08T05:54:42;2.60;;;1.67;;
48199;SDS011;33990;44.602;10.976;2023-03-08T05:57:14;3.58;;;2.45;;
48199;SDS011;33990;44.602;10.976;2023-03-08T05:59:41;3.53;;;1.95;;
48199;SDS011;33990;44.602;10.976;2023-03-08T06:02:12;4.13;;;1.90;;
48199;SDS011;33990;44.602;10.976;2023-03-08T06:04:44;4.05;;;1.70;;
48199;SDS011;33990;44.602;10.976;2023-03-08T06:07:14;3.50;;;2.10;;
48199;SDS011;33990;44.602;10.976;2023-03-08T06:09:46;4.90;;;1.90;;
48199;SDS011;33990;44.602;10.976;2023-03-08T06:12:16;4.32;;;1.98;;
48199;SDS011;33990;44.602;10.976;2023-03-08T06:14:47;2.90;;;1.80;;
48199;SDS011;33990;44.602;10.976;2023-03-08T06:17:17;4.20;;;2.17;;
48199;SDS011;33990;44.602;10.976;2023-03-08T06:19:47;2.63;;;1.55;;
48199;SDS011;33990;44.602;10.976;2023-03-08T06:22:15;4.90;;;2.08;;
48199;SDS011;33990;44.602;10.976;2023-03-08T06:24:44;3.47;;;2.00;;
48199;SDS011;33990;44.602;10.976;2023-03-08T06:27:20;5.15;;;2.33;;
48199;SDS011;33990;44.602;10.976;2023-03-08T06:29:49;2.90;;;1.85;;
48199;SDS011;33990;44.602;10.976;2023-03-08T06:32:18;3.03;;;1.90;;
48199;SDS011;33990;44.602;10.976;2023-03-08T06:34:46;4.07;;;1.98;;
48199;SDS011;33990;44.602;10.976;2023-03-08T06:37:13;5.28;;;2.28;;
48199;SDS011;33990;44.602;10.976;2023-03-08T06:39:41;3.28;;;1.80;;
48199;SDS011;33990;44.602;10.976;2023-03-08T06:42:08;3.38;;;1.88;;
48199;SDS011;33990;44.602;10.976;2023-03-08T06:44:36;2.97;;;1.88;;
48199;SDS011;33990;44.602;10.976;2023-03-08T06:47:05;4.82;;;2.17;;
48199;SDS011;33990;44.602;10.976;2023-03-08T06:49:33;4.97;;;1.75;;
48199;SDS011;33990;44.602;10.976;2023-03-08T06:52:00;2.90;;;1.80;;
48199;SDS011;33990;44.602;10.976;2023-03-08T06:54:28;2.65;;;1.55;;
48199;SDS011;33990;44.602;10.976;2023-03-08T06:56:55;3.47;;;1.95;;
48199;SDS011;33990;44.602;10.976;2023-03-08T06:59:23;2.90;;;1.75;;
48199;SDS011;33990;44.602;10.976;2023-03-08T07:01:50;5.88;;;1.65;;
48199;SDS011;33990;44.602;10.976;2023-03-08T07:04:17;3.28;;;1.67;;
48199;SDS011;33990;44.602;10.976;2023-03-08T07:06:45;3.42;;;1.80;;
48199;SDS011;33990;44.602;10.976;2023-03-08T07:09:12;3.85;;;1.80;;
48199;SDS011;33990;44.602;10.976;2023-03-08T07:11:40;3.05;;;1.63;;
48199;SDS011;33990;44.602;10.976;2023-03-08T07:14:07;3.97;;;1.77;;
48199;SDS011;33990;44.602;10.976;2023-03-08T07:16:34;3.17;;;1.70;;
48199;SDS011;33990;44.602;10.976;2023-03-08T07:19:02;4.18;;;2.05;;
48199;SDS011;33990;44.602;10.976;2023-03-08T07:21:29;6.13;;;2.10;;
48199;SDS011;33990;44.602;10.976;2023-03-08T07:23:56;3.78;;;1.73;;
48199;SDS011;33990;44.602;10.976;2023-03-08T07:26:24;4.30;;;2.17;;
48199;SDS011;33990;44.602;10.976;2023-03-08T07:28:51;4.65;;;2.20;;
48199;SDS011;33990;44.602;10.976;2023-03-08T07:31:19;4.95;;;2.20;;
48199;SDS011;33990;44.602;10.976;2023-03-08T07:33:46;6.57;;;2.92;;
48199;SDS011;33990;44.602;10.976;2023-03-08T07:36:13;4.30;;;2.63;;
48199;SDS011;33990;44.602;10.976;2023-03-08T07:38:41;6.22;;;2.95;;
48199;SDS011;33990;44.602;10.976;2023-03-08T07:41:08;4.78;;;2.88;;
48199;SDS011;33990;44.602;10.976;2023-03-08T07:43:36;6.55;;;3.35;;
48199;SDS011;33990;44.602;10.976;2023-03-08T07:46:19;6.60;;;2.75;;
48199;SDS011;33990;44.602;10.976;2023-03-08T07:48:47;6.13;;;3.35;;
48199;SDS011;33990;44.602;10.976;2023-03-08T07:51:14;5.50;;;2.75;;
48199;SDS011;33990;44.602;10.976;2023-03-08T07:53:42;8.38;;;2.95;;
48199;SDS011;33990;44.602;10.976;2023-03-08T07:56:09;3.63;;;2.00;;
48199;SDS011;33990;44.602;10.976;2023-03-08T07:58:37;6.78;;;1.90;;
48199;SDS011;33990;44.602;10.976;2023-03-08T08:01:09;6.82;;;2.03;;
48199;SDS011;33990;44.602;10.976;2023-03-08T08:03:37;5.68;;;1.88;;
48199;SDS011;33990;44.602;10.976;2023-03-08T08:06:05;6.10;;;2.20;;
48199;SDS011;33990;44.602;10.976;2023-03-08T08:08:32;3.92;;;1.70;;
48199;SDS011;33990;44.602;10.976;2023-03-08T08:11:00;3.85;;;1.52;;
48199;SDS011;33990;44.602;10.976;2023-03-08T08:13:35;3.42;;;2.20;;
48199;SDS011;33990;44.602;10.976;2023-03-08T08:16:02;5.13;;;2.20;;
48199;SDS011;33990;44.602;10.976;2023-03-08T08:18:30;4.13;;;2.13;;
48199;SDS011;33990;44.602;10.976;2023-03-08T08:21:01;6.28;;;2.63;;
48199;SDS011;33990;44.602;10.976;2023-03-08T08:23:30;5.60;;;2.72;;
48199;SDS011;33990;44.602;10.976;2023-03-08T08:25:59;6.90;;;3.20;;
48199;SDS011;33990;44.602;10.976;2023-03-08T08:28:30;5.93;;;2.40;;
48199;SDS011;33990;44.602;10.976;2023-03-08T08:31:02;7.72;;;2.80;;
48199;SDS011;33990;44.602;10.976;2023-03-08T08:33:34;4.05;;;2.38;;
48199;SDS011;33990;44.602;10.976;2023-03-08T08:36:03;3.95;;;2.22;;
48199;SDS011;33990;44.602;10.976;2023-03-08T08:38:32;4.15;;;2.00;;
48199;SDS011;33990;44.602;10.976;2023-03-08T08:41:01;6.07;;;2.53;;
48199;SDS011;33990;44.602;10.976;2023-03-08T08:43:29;5.50;;;2.28;;
48199;SDS011;33990;44.602;10.976;2023-03-08T08:45:58;3.85;;;2.10;;
48199;SDS011;33990;44.602;10.976;2023-03-08T08:48:26;6.57;;;2.13;;
48199;SDS011;33990;44.602;10.976;2023-03-08T08:50:54;5.30;;;2.38;;
48199;SDS011;33990;44.602;10.976;2023-03-08T08:53:24;3.85;;;2.00;;
48199;SDS011;33990;44.602;10.976;2023-03-08T08:55:52;6.05;;;2.92;;
48199;SDS011;33990;44.602;10.976;2023-03-08T08:58:19;7.53;;;2.88;;
48199;SDS011;33990;44.602;10.976;2023-03-08T09:00:46;5.72;;;2.33;;
48199;SDS011;33990;44.602;10.976;2023-03-08T09:03:14;4.25;;;2.22;;
48199;SDS011;33990;44.602;10.976;2023-03-08T09:05:42;5.63;;;2.75;;
48199;SDS011;33990;44.602;10.976;2023-03-08T09:08:10;5.95;;;2.42;;
48199;SDS011;33990;44.602;10.976;2023-03-08T09:10:38;6.18;;;2.70;;
48199;SDS011;33990;44.602;10.976;2023-03-08T09:13:07;5.32;;;2.42;;
48199;SDS011;33990;44.602;10.976;2023-03-08T09:15:34;6.88;;;2.78;;
48199;SDS011;33990;44.602;10.976;2023-03-08T09:18:03;4.97;;;2.35;;
48199;SDS011;33990;44.602;10.976;2023-03-08T09:20:30;6.60;;;2.70;;
48199;SDS011;33990;44.602;10.976;2023-03-08T09:22:58;5.75;;;2.13;;
48199;SDS011;33990;44.602;10.976;2023-03-08T09:25:25;4.18;;;2.33;;
48199;SDS011;33990;44.602;10.976;2023-03-08T09:27:52;5.80;;;2.63;;
48199;SDS011;33990;44.602;10.976;2023-03-08T09:30:20;4.78;;;2.63;;
48199;SDS011;33990;44.602;10.976;2023-03-08T09:32:47;8.40;;;3.15;;
48199;SDS011;33990;44.602;10.976;2023-03-08T09:35:14;8.20;;;3.40;;
48199;SDS011;33990;44.602;10.976;2023-03-08T09:37:43;11.88;;;3.15;;
48199;SDS011;33990;44.602;10.976;2023-03-08T09:40:20;6.13;;;2.70;;
48199;SDS011;33990;44.602;10.976;2023-03-08T09:42:50;11.13;;;3.28;;
48199;SDS011;33990;44.602;10.976;2023-03-08T09:45:23;11.25;;;3.55;;
48199;SDS011;33990;44.602;10.976;2023-03-08T09:55:51;8.27;;;2.67;;
48199;SDS011;33990;44.602;10.976;2023-03-08T10:03:30;8.60;;;3.08;;
48199;SDS011;33990;44.602;10.976;2023-03-08T10:11:55;6.47;;;3.15;;
48199;SDS011;33990;44.602;10.976;2023-03-08T10:14:41;5.90;;;2.85;;
48199;SDS011;33990;44.602;10.976;2023-03-08T10:17:17;7.25;;;2.97;;
48199;SDS011;33990;44.602;10.976;2023-03-08T10:22:39;7.63;;;3.38;;
48199;SDS011;33990;44.602;10.976;2023-03-08T10:25:25;5.82;;;3.03;;
48199;SDS011;33990;44.602;10.976;2023-03-08T10:27:58;6.75;;;3.10;;
48199;SDS011;33990;44.602;10.976;2023-03-08T10:30:30;5.68;;;3.15;;
48199;SDS011;33990;44.602;10.976;2023-03-08T10:33:00;9.60;;;3.40;;
48199;SDS011;33990;44.602;10.976;2023-03-08T10:35:35;5.38;;;3.10;;
48199;SDS011;33990;44.602;10.976;2023-03-08T10:38:13;8.48;;;3.22;;
48199;SDS011;33990;44.602;10.976;2023-03-08T10:40:42;6.40;;;3.63;;
48199;SDS011;33990;44.602;10.976;2023-03-08T10:43:17;7.05;;;3.45;;
48199;SDS011;33990;44.602;10.976;2023-03-08T10:46:02;5.93;;;3.23;;
48199;SDS011;33990;44.602;10.976;2023-03-08T10:48:32;5.90;;;3.40;;
48199;SDS011;33990;44.602;10.976;2023-03-08T10:51:00;6.45;;;2.88;;
48199;SDS011;33990;44.602;10.976;2023-03-08T10:53:30;9.77;;;3.88;;
48199;SDS011;33990;44.602;10.976;2023-03-08T10:55:59;6.70;;;3.50;;
48199;SDS011;33990;44.602;10.976;2023-03-08T11:00:59;8.25;;;3.40;;
48199;SDS011;33990;44.602;10.976;2023-03-08T11:03:28;4.38;;;2.60;;
48199;SDS011;33990;44.602;10.976;2023-03-08T11:06:30;5.47;;;2.70;;
48199;SDS011;33990;44.602;10.976;2023-03-08T11:08:51;6.00;;;3.00;;
48199;SDS011;33990;44.602;10.976;2023-03-08T11:11:21;7.40;;;3.08;;
48199;SDS011;33990;44.602;10.976;2023-03-08T11:13:49;6.18;;;3.97;;
48199;SDS011;33990;44.602;10.976;2023-03-08T11:16:28;4.57;;;2.88;;
48199;SDS011;33990;44.602;10.976;2023-03-08T11:32:34;4.20;;;2.63;;
48199;SDS011;33990;44.602;10.976;2023-03-08T11:35:09;4.65;;;2.70;;
48199;SDS011;33990;44.602;10.976;2023-03-08T11:38:05;5.28;;;2.65;;
48199;SDS011;33990;44.602;10.976;2023-03-08T11:46:00;5.28;;;3.05;;
48199;SDS011;33990;44.602;10.976;2023-03-08T11:51:20;7.28;;;2.85;;
48199;SDS011;33990;44.602;10.976;2023-03-08T11:54:04;5.63;;;2.80;;
48199;SDS011;33990;44.602;10.976;2023-03-08T11:57:15;5.03;;;2.60;;
48199;SDS011;33990;44.602;10.976;2023-03-08T11:59:28;5.97;;;2.70;;
48199;SDS011;33990;44.602;10.976;2023-03-08T12:07:27;4.75;;;3.35;;
48199;SDS011;33990;44.602;10.976;2023-03-08T12:10:21;8.85;;;3.28;;
48199;SDS011;33990;44.602;10.976;2023-03-08T12:12:52;6.90;;;2.95;;
48199;SDS011;33990;44.602;10.976;2023-03-08T12:15:36;7.50;;;2.90;;
48199;SDS011;33990;44.602;10.976;2023-03-08T12:20:50;6.93;;;3.60;;
48199;SDS011;33990;44.602;10.976;2023-03-08T12:26:38;4.40;;;2.55;;
48199;SDS011;33990;44.602;10.976;2023-03-08T12:29:31;5.45;;;2.90;;
48199;SDS011;33990;44.602;10.976;2023-03-08T12:32:05;5.85;;;2.42;;
48199;SDS011;33990;44.602;10.976;2023-03-08T12:37:19;6.13;;;3.75;;
48199;SDS011;33990;44.602;10.976;2023-03-08T12:39:55;5.47;;;3.38;;
48199;SDS011;33990;44.602;10.976;2023-03-08T12:42:30;8.63;;;5.15;;
48199;SDS011;33990;44.602;10.976;2023-03-08T12:48:06;10.45;;;7.35;;
48199;SDS011;33990;44.602;10.976;2023-03-08T12:50:42;14.13;;;8.55;;
48199;SDS011;33990;44.602;10.976;2023-03-08T12:53:32;16.15;;;10.07;;
48199;SDS011;33990;44.602;10.976;2023-03-08T12:56:22;14.50;;;8.48;;
48199;SDS011;33990;44.602;10.976;2023-03-08T13:01:41;15.15;;;9.10;;
48199;SDS011;33990;44.602;10.976;2023-03-08T13:04:33;11.65;;;7.15;;
48199;SDS011;33990;44.602;10.976;2023-03-08T13:07:16;14.82;;;8.48;;
48199;SDS011;33990;44.602;10.976;2023-03-08T13:09:58;14.48;;;8.32;;
48199;SDS011;33990;44.602;10.976;2023-03-08T13:20:33;16.75;;;7.97;;
48199;SDS011;33990;44.602;10.976;2023-03-08T13:28:19;12.57;;;8.85;;
48199;SDS011;33990;44.602;10.976;2023-03-08T13:30:49;14.13;;;8.02;;
48199;SDS011;33990;44.602;10.976;2023-03-08T13:33:26;10.77;;;6.95;;
48199;SDS011;33990;44.602;10.976;2023-03-08T13:36:04;16.17;;;7.28;;
48199;SDS011;33990;44.602;10.976;2023-03-08T13:38:34;13.40;;;8.02;;
48199;SDS011;33990;44.602;10.976;2023-03-08T13:41:02;12.77;;;6.55;;
48199;SDS011;33990;44.602;10.976;2023-03-08T13:43:31;12.55;;;7.03;;
48199;SDS011;33990;44.602;10.976;2023-03-08T13:46:03;10.68;;;7.90;;
48199;SDS011;33990;44.602;10.976;2023-03-08T13:48:36;12.40;;;7.22;;
48199;SDS011;33990;44.602;10.976;2023-03-08T13:51:04;10.20;;;6.43;;
48199;SDS011;33990;44.602;10.976;2023-03-08T13:53:32;10.90;;;6.65;;
48199;SDS011;33990;44.602;10.976;2023-03-08T13:56:03;9.77;;;5.82;;
48199;SDS011;33990;44.602;10.976;2023-03-08T13:58:43;7.28;;;5.70;;
48199;SDS011;33990;44.602;10.976;2023-03-08T14:01:14;10.35;;;6.63;;
48199;SDS011;33990;44.602;10.976;2023-03-08T14:03:45;7.72;;;5.78;;
48199;SDS011;33990;44.602;10.976;2023-03-08T14:06:26;11.52;;;6.18;;
48199;SDS011;33990;44.602;10.976;2023-03-08T14:11:29;12.00;;;6.63;;
48199;SDS011;33990;44.602;10.976;2023-03-08T14:13:59;7.40;;;5.47;;
48199;SDS011;33990;44.602;10.976;2023-03-08T14:16:34;8.93;;;6.00;;
48199;SDS011;33990;44.602;10.976;2023-03-08T14:19:08;15.02;;;6.20;;
48199;SDS011;33990;44.602;10.976;2023-03-08T14:21:54;11.20;;;5.97;;
48199;SDS011;33990;44.602;10.976;2023-03-08T14:24:25;9.95;;;5.65;;
48199;SDS011;33990;44.602;10.976;2023-03-08T14:26:57;9.93;;;6.25;;
48199;SDS011;33990;44.602;10.976;2023-03-08T14:29:30;9.15;;;5.55;;
48199;SDS011;33990;44.602;10.976;2023-03-08T14:32:00;8.93;;;5.07;;
48199;SDS011;33990;44.602;10.976;2023-03-08T14:34:29;7.30;;;4.63;;
48199;SDS011;33990;44.602;10.976;2023-03-08T14:37:03;7.13;;;4.93;;
48199;SDS011;33990;44.602;10.976;2023-03-08T14:39:34;7.03;;;5.15;;
48199;SDS011;33990;44.602;10.976;2023-03-08T14:44:59;7.03;;;4.70;;
48199;SDS011;33990;44.602;10.976;2023-03-08T14:47:32;7.63;;;5.03;;
48199;SDS011;33990;44.602;10.976;2023-03-08T14:52:35;7.10;;;4.47;;
48199;SDS011;33990;44.602;10.976;2023-03-08T14:55:20;6.90;;;4.63;;
48199;SDS011;33990;44.602;10.976;2023-03-08T14:57:50;7.68;;;4.55;;
48199;SDS011;33990;44.602;10.976;2023-03-08T15:00:19;6.60;;;5.07;;
48199;SDS011;33990;44.602;10.976;2023-03-08T15:02:48;5.93;;;4.35;;
48199;SDS011;33990;44.602;10.976;2023-03-08T15:05:16;5.78;;;4.05;;
48199;SDS011;33990;44.602;10.976;2023-03-08T15:07:55;6.55;;;4.25;;
48199;SDS011;33990;44.602;10.976;2023-03-08T15:10:29;7.47;;;4.28;;
48199;SDS011;33990;44.602;10.976;2023-03-08T15:12:59;9.20;;;4.68;;
48199;SDS011;33990;44.602;10.976;2023-03-08T15:15:26;7.93;;;4.50;;
48199;SDS011;33990;44.602;10.976;2023-03-08T15:17:54;8.75;;;4.90;;
48199;SDS011;33990;44.602;10.976;2023-03-08T15:20:21;5.93;;;4.10;;
48199;SDS011;33990;44.602;10.976;2023-03-08T15:22:50;7.47;;;4.57;;
48199;SDS011;33990;44.602;10.976;2023-03-08T15:25:24;9.20;;;4.53;;
48199;SDS011;33990;44.602;10.976;2023-03-08T15:27:53;6.82;;;4.60;;
48199;SDS011;33990;44.602;10.976;2023-03-08T15:30:23;7.55;;;4.15;;
48199;SDS011;33990;44.602;10.976;2023-03-08T15:32:52;10.45;;;5.28;;
48199;SDS011;33990;44.602;10.976;2023-03-08T15:35:21;6.47;;;4.45;;
48199;SDS011;33990;44.602;10.976;2023-03-08T15:37:49;5.07;;;3.85;;
48199;SDS011;33990;44.602;10.976;2023-03-08T15:40:19;5.10;;;3.95;;
48199;SDS011;33990;44.602;10.976;2023-03-08T15:42:48;6.75;;;3.60;;
48199;SDS011;33990;44.602;10.976;2023-03-08T15:45:15;7.20;;;3.90;;
48199;SDS011;33990;44.602;10.976;2023-03-08T15:47:43;6.45;;;3.97;;
48199;SDS011;33990;44.602;10.976;2023-03-08T15:50:14;6.07;;;4.03;;
48199;SDS011;33990;44.602;10.976;2023-03-08T15:52:43;6.20;;;4.00;;
48199;SDS011;33990;44.602;10.976;2023-03-08T15:55:12;4.95;;;3.30;;
48199;SDS011;33990;44.602;10.976;2023-03-08T15:57:40;5.97;;;4.03;;
48199;SDS011;33990;44.602;10.976;2023-03-08T16:00:08;6.55;;;3.80;;
48199;SDS011;33990;44.602;10.976;2023-03-08T16:02:38;4.85;;;3.38;;
48199;SDS011;33990;44.602;10.976;2023-03-08T16:05:07;6.18;;;3.97;;
48199;SDS011;33990;44.602;10.976;2023-03-08T16:07:36;4.97;;;3.97;;
48199;SDS011;33990;44.602;10.976;2023-03-08T16:10:04;6.40;;;4.13;;
48199;SDS011;33990;44.602;10.976;2023-03-08T16:12:33;8.15;;;3.78;;
48199;SDS011;33990;44.602;10.976;2023-03-08T16:15:00;7.05;;;4.28;;
48199;SDS011;33990;44.602;10.976;2023-03-08T16:17:28;6.88;;;3.42;;
48199;SDS011;33990;44.602;10.976;2023-03-08T16:19:56;6.40;;;3.55;;
48199;SDS011;33990;44.602;10.976;2023-03-08T16:22:23;4.57;;;3.25;;
48199;SDS011;33990;44.602;10.976;2023-03-08T16:24:53;7.95;;;5.03;;
48199;SDS011;33990;44.602;10.976;2023-03-08T16:27:20;5.68;;;3.55;;
48199;SDS011;33990;44.602;10.976;2023-03-08T16:29:48;6.78;;;3.85;;
48199;SDS011;33990;44.602;10.976;2023-03-08T16:32:17;5.28;;;3.35;;